AirNav   TITAN Aviation Fuels
 
 1509 users online  

3T6 Clark Airport
Justin, Texas, USA

GOING TO JUSTIN?


FAA INFORMATION EFFECTIVE 20 MAY 2021

Location

FAA Identifier: 3T6
Lat/Long: 33-08-01.0000N 097-17-49.3000W
33-08.016667N 097-17.821667W
33.1336111,-97.2970278
(estimated)
Elevation: 705 ft. / 215 m (estimated)
Variation: 07E (1985)
From city: 3 miles N of JUSTIN, TX
Time zone: UTC -5 (UTC -6 during Standard Time)
Zip code: 76247

Airport Operations

Airport use: Open to the public
Activation date: 04/1976
Control tower: no
ARTCC: FORT WORTH CENTER
FSS: FORT WORTH FLIGHT SERVICE STATION
NOTAMs facility: FTW (NOTAM-D service available)
Attendance: UNATNDD
Wind indicator: yes
Segmented circle: no

Airport Communications

CTAF: 122.9
WX ASOS at DTO (6 nm NE): 119.325 (940-383-8457)
WX ASOS at AFW (9 nm S): PHONE 817-491-6188
WX AWOS-3 at LUD (16 nm NW): 118.225 (940-627-2365)
WX ASOS at FTW (19 nm S): PHONE 817-740-3346
WX ASOS at DFW (19 nm SE): PHONE 972-615-2608

Nearby radio navigation aids

VOR radial/distance  VOR name  Freq  Var
FUZr332/15.8RANGER VORTAC115.7006E
TTTr315/20.5MAVERICK VOR/DME113.1006E
CVEr300/24.6COWBOY VOR/DME116.2006E
UKWr127/35.7BOWIE VORTAC117.1506E

 
NDB name  Hdg/Dist  Freq  Var  ID
PINCK205/10.325704EDT -.. -
MUFIN007/14.936508EFT ..-. -

Airport Services

Parking: hangars

Runway Information

Runway 17/35

Dimensions: 1800 x 22 ft. / 549 x 7 m
Surface: asphalt, in fair condition
VEGETATION GROWING THROUGH PAVEMENT & LOOSE STONES ON RY.
Runway edge markings: NO CENTERLINE STRIPE.
RUNWAY 17  RUNWAY 35
Latitude: 33-08.164263N33-07.867387N
Longitude: 097-17.819457W097-17.822518W
Elevation: 702.0 ft.696.0 ft.
Traffic pattern: leftleft
Runway heading: 174 magnetic, 181 true353 magnetic, 000 true
Obstructions: 21 ft. bldg, 620 ft. from runway, 20:1 slope to clear
16 FT ROAD 180 FT FM THLD ACROSS EXTENDED CNTRLN; +30 FT TREE 142 FT FM THLD 90 FT WEST OF CNTRLN.
none
5 FT FENCE 0 FT FROM THLD, 50 FT R; 12 FT TREE, 20 FT DSTC, 50 FT R.

Airport Ownership and Management from official FAA records

Ownership: Privately-owned
Owner: CLARK AIRPORT PARTNERS LLC
10109 CLARK AIRPORT ROAD
JUSTIN, TX 76247
Phone (972) 741-4520
Manager: ALLEN HILTON
BOX 154627
IRVING, TX 75015
Phone (972) 741-4520

Airport Operational Statistics

Aircraft based on the field: 20
Single engine airplanes: 20
    
Aircraft operations: avg 83/month *
50% transient general aviation
50% local general aviation
* for 12-month period ending 13 December 2018

Additional Remarks

+5 FT FENCE 50-75 FT EAST OF RY RUNNING PARALLEL MARKED WITH TIRES.
FOR CD CTC REGIONAL APCH AT 972-615-2799.

Instrument Procedures

There are no published instrument procedures at 3T6.

Some nearby airports with instrument procedures:

KDTO - Denton Enterprise Airport (6 nm NE)
KAFW - Fort Worth Alliance Airport (9 nm S)
4T2 - Kenneth Copeland Airport (14 nm SW)
KLUD - Decatur Municipal Airport (16 nm NW)
KFTW - Fort Worth Meacham International Airport (19 nm S)
KDFW - Dallas-Fort Worth International Airport (19 nm SE)
 
Loc | Ops | Rwys | IFR | FBO | Links
Com | Nav | Svcs | Stats | Notes

City of Fort Worth
 
Area around 3T6 (Clark Airport)
 
Road maps at: MapQuest Bing Google
 
Aerial photo
WARNING: Photo may not be current or correct
Aerial photo of 3T6 (Clark Airport)
Photo by Mike Mee
Taken in the Summer of 2017
looking south.

Do you have a better or more recent aerial photo of Clark Airport that you would like to share? If so, please send us your photo.

 
Sectional chart

 
Airport distance calculator
Flying to Clark Airport? Find the distance to fly.

From to 3T6

Sunrise and sunset
Times for 14-Jun-2021
 Local
(UTC-5)
 Zulu
(UTC)
Morning civil twilight05:5210:52
Sunrise06:2111:21
Sunset20:3801:38
Evening civil twilight21:0702:07

Current date and time
Zulu (UTC)  14-Jun-2021 20:42:20
Local (UTC-5)  14-Jun-2021 15:42:20
 
METAR
KDTO 
6nm NE 
141953Z 02009KT 10SM CLR 35/23 A2998 RMK AO2 SLP141 T03500233
KAFW 
10nm S 
141953Z 03010KT 10SM SCT046 SCT220 BKN300 34/23 A2997 RMK AO2 SLP130 CB DSNT S-SW MOV SW TCU DSNT SE-S T03440233
KLUD 
16nm NW 
118.22 940-927-2365
142015Z AUTO 08005KT 10SM CLR 34/21 A3000 RMK AO2 T03370205
KFTW 
18nm S 
141953Z 02011KT 10SM FEW047 34/24 A2996 RMK AO2 LTG DSNT SE-SW SLP134 T03440239
KDFW 
20nm SE 
141953Z 05008G16KT 10SM SCT050TCU BKN200 BKN300 36/22 A2995 RMK AO2 LTG DSNT S AND SW SLP131 TCU E-S-SW T03560222 $
TAF
KAFW 
10nm S 
141730Z 1418/1518 05005KT P6SM VCTS SCT040CB FM142300 02004KT P6SM SCT180
KFTW 
18nm S 
141730Z 1418/1518 04005KT P6SM VCTS SCT040CB FM142300 09005KT P6SM SCT200
KDFW 
20nm SE 
141730Z 1418/1524 05005KT P6SM VCTS SCT040CB FM142300 04003KT P6SM SCT180
NOTAMs
Click for the latest NOTAMs
NOTAMs are issued by the DoD/FAA and will open in a separate window not controlled by AirNav.

 

 
 

Would you like to see your business listed on this page?

 If your business provides an interesting product or service to pilots, flight crews, aircraft, or users of the Clark Airport, you should consider listing it here.  To start the listing process, click on the button below
 
Add a business
 

Other Pages about Clark Airport

Update a link
 
Copyright © AirNav, LLC. All rights reserved. Privacy Policy  Contact